createdAt,value
2023-04-01T00:00:09.394Z,101323.59
2023-04-01T00:02:39.113Z,101292.31
2023-04-01T00:05:07.053Z,101329.72
2023-04-01T00:07:34.138Z,101333.22
2023-04-01T00:10:01.052Z,101337.59
2023-04-01T00:12:28.160Z,101336.78
2023-04-01T00:14:55.018Z,101336.78
2023-04-01T00:17:22.513Z,101339.41
2023-04-01T00:19:49.680Z,101318.56
2023-04-01T00:22:16.787Z,101349.06
2023-04-01T00:24:43.690Z,101350.78
2023-04-01T00:27:10.985Z,101354.31
2023-04-01T00:29:37.901Z,101358.69
2023-04-01T00:32:05.099Z,101367.44
2023-04-01T00:34:32.304Z,101369.19
2023-04-01T00:36:59.596Z,101376.22
2023-04-01T00:39:27.449Z,101378.84
2023-04-01T00:41:54.606Z,101373.59
2023-04-01T00:44:23.525Z,101378.84
2023-04-01T00:46:53.542Z,101320.53
2023-04-01T00:49:24.985Z,101360.59
2023-04-01T00:51:56.026Z,101387.59
2023-04-01T00:54:26.494Z,101386.72
2023-04-01T00:57:00.775Z,101289.25
2023-04-01T00:59:48.584Z,101391.13
2023-04-01T01:02:16.870Z,101382.44
2023-04-01T01:04:43.906Z,101399.00
2023-04-01T01:07:27.442Z,101395.53
2023-04-01T01:10:34.435Z,101397.28
2023-04-01T01:13:07.408Z,101345.94
2023-04-01T01:15:34.415Z,101403.41
2023-04-01T01:18:09.945Z,101404.31
2023-04-01T01:20:48.953Z,101406.94
2023-04-01T01:23:32.095Z,101406.94
2023-04-01T01:26:04.889Z,101401.72
2023-04-01T01:29:02.949Z,101415.69
2023-04-01T01:31:55.889Z,101413.94
2023-04-01T01:34:36.712Z,101427.06
2023-04-01T01:37:09.118Z,101424.44
2023-04-01T01:39:38.517Z,101430.56
2023-04-01T01:42:08.738Z,101430.59
2023-04-01T01:44:38.669Z,101438.44
2023-04-01T01:47:07.020Z,101437.56
2023-04-01T01:49:36.645Z,101430.59
2023-04-01T01:52:04.705Z,101446.31
2023-04-01T01:54:31.841Z,101452.44
2023-04-01T01:57:08.536Z,101389.72
2023-04-01T01:59:40.994Z,101453.34
2023-04-01T02:02:10.940Z,101448.97
2023-04-01T02:04:44.741Z,101452.47
2023-04-01T02:07:21.842Z,101453.34
2023-04-01T02:09:49.633Z,101462.06
2023-04-01T02:12:18.654Z,101474.31
2023-04-01T02:15:06.334Z,101480.41
2023-04-01T02:17:35.400Z,101470.84
2023-04-01T02:20:15.545Z,101467.38
2023-04-01T02:23:07.272Z,101488.28
2023-04-01T02:25:57.195Z,101466.50
2023-04-01T02:28:45.674Z,101420.31
2023-04-01T02:31:35.593Z,101490.03
2023-04-01T02:34:23.805Z,101409.00
2023-04-01T02:37:11.983Z,101490.06
2023-04-01T02:39:58.904Z,101504.03
2023-04-01T02:42:46.231Z,101490.06
2023-04-01T02:45:34.633Z,101509.28
2023-04-01T02:48:22.057Z,101508.41
2023-04-01T02:51:09.868Z,101504.06
2023-04-01T02:53:56.888Z,101510.13
2023-04-01T02:56:43.826Z,101500.56
2023-04-01T02:59:30.716Z,101491.81
2023-04-01T03:02:17.694Z,101515.38
2023-04-01T03:05:04.720Z,101524.09
2023-04-01T03:07:51.695Z,101522.38
2023-04-01T03:10:39.091Z,101525.84
2023-04-01T03:13:26.176Z,101529.34
2023-04-01T03:16:13.319Z,101508.38
2023-04-01T03:19:00.378Z,101535.41
2023-04-01T03:21:47.290Z,101519.69
2023-04-01T03:24:34.330Z,101532.78
2023-04-01T03:27:21.256Z,101538.88
2023-04-01T03:30:08.335Z,101551.06
2023-04-01T03:33:02.019Z,101545.81
2023-04-01T03:35:51.772Z,101520.50
2023-04-01T03:38:39.798Z,101541.44
2023-04-01T03:41:26.682Z,101518.72
2023-04-01T03:44:14.741Z,101567.59
2023-04-01T03:47:01.990Z,101574.53
2023-04-01T03:49:49.452Z,101571.91
2023-04-01T03:52:36.682Z,101571.03
2023-04-01T03:55:24.498Z,101567.50
2023-04-01T03:58:11.399Z,101581.44
2023-04-01T04:00:58.460Z,101574.44
2023-04-01T04:03:45.605Z,101586.63
2023-04-01T04:06:35.041Z,101584.00
2023-04-01T04:09:22.500Z,101597.94
2023-04-01T04:12:10.096Z,101603.16
2023-04-01T04:14:57.025Z,101607.47
2023-04-01T04:17:44.059Z,101605.72
2023-04-01T04:20:31.109Z,101592.56
2023-04-01T04:23:18.215Z,101585.56
2023-04-01T04:26:19.054Z,101607.38
2023-04-01T04:29:18.507Z,101614.31
2023-04-01T04:32:05.502Z,101611.69
2023-04-01T04:34:53.137Z,101582.81
2023-04-01T04:37:40.302Z,101589.75
2023-04-01T04:40:28.698Z,101600.22
2023-04-01T04:43:15.635Z,101613.34
2023-04-01T04:46:03.439Z,101621.16
2023-04-01T04:48:50.322Z,101608.88
2023-04-01T04:51:39.095Z,101637.69
2023-04-01T04:54:27.001Z,101626.31
2023-04-01T04:57:17.114Z,101628.06
2023-04-01T05:00:11.486Z,101633.28
2023-04-01T05:03:17.492Z,101637.63
2023-04-01T05:06:13.216Z,101641.09
2023-04-01T05:09:01.412Z,101645.41
2023-04-01T05:11:48.302Z,101638.34
2023-04-01T05:14:38.883Z,101582.38
2023-04-01T05:17:33.449Z,101566.66
2023-04-01T05:20:20.954Z,101647.09
2023-04-01T05:23:07.998Z,101649.72
2023-04-01T05:25:55.218Z,101560.56
2023-04-01T05:28:42.284Z,101638.34
2023-04-01T05:31:29.663Z,101634.00
2023-04-01T05:34:18.416Z,101643.59
2023-04-01T05:37:05.982Z,101563.22
2023-04-01T05:39:52.869Z,101646.22
2023-04-01T05:42:39.896Z,101627.00
2023-04-01T05:45:27.526Z,101649.75
2023-04-01T05:48:50.110Z,101661.09
2023-04-01T05:51:37.504Z,101631.38
2023-04-01T05:54:26.189Z,101661.13
2023-04-01T05:57:13.189Z,101657.63
2023-04-01T06:00:00.535Z,101657.63
2023-04-01T06:02:47.596Z,101665.50
2023-04-01T06:05:43.527Z,101661.19
2023-04-01T06:08:34.001Z,101648.09
2023-04-01T06:11:55.958Z,101668.19
2023-04-01T06:15:02.990Z,101604.44
2023-04-01T06:17:50.387Z,101663.91
2023-04-01T06:20:55.924Z,101660.50
2023-04-01T06:24:09.802Z,101664.84
2023-04-01T06:27:12.052Z,101659.66
2023-04-01T06:30:23.725Z,101657.03
2023-04-01T06:33:39.214Z,101607.25
2023-04-01T06:36:45.184Z,101670.16
2023-04-01T06:39:52.422Z,101648.34
2023-04-01T06:42:50.943Z,101665.88
2023-04-01T06:46:03.350Z,101678.97
2023-04-01T06:49:50.256Z,101649.28
2023-04-01T06:52:58.164Z,101681.66
2023-04-01T06:56:08.362Z,101665.94
2023-04-01T06:59:13.819Z,101684.31
2023-04-01T07:02:08.844Z,101617.88
2023-04-01T07:05:01.453Z,101679.09
2023-04-01T07:08:04.547Z,101689.59
2023-04-01T07:11:26.101Z,101687.91
2023-04-01T07:14:55.004Z,101686.19
2023-04-01T07:17:46.723Z,101661.75
2023-04-01T07:20:57.776Z,101683.63
2023-04-01T07:23:49.491Z,101694.94
2023-04-01T07:26:51.424Z,101694.97
2023-04-01T07:29:42.472Z,101684.56
2023-04-01T07:32:37.060Z,101688.03
2023-04-01T07:36:05.309Z,101685.44
2023-04-01T07:39:23.299Z,101589.41
2023-04-01T07:42:41.433Z,101678.50
2023-04-01T07:45:51.006Z,101678.53
2023-04-01T07:48:54.113Z,101674.19
2023-04-01T07:51:57.346Z,101676.81
2023-04-01T07:54:58.906Z,101660.22
2023-04-01T07:58:04.748Z,101679.44
2023-04-01T08:01:08.005Z,101679.44
2023-04-01T08:04:19.582Z,101687.31
2023-04-01T08:07:20.465Z,101682.06
2023-04-01T08:10:52.413Z,101677.72
2023-04-01T08:14:11.699Z,101687.34
2023-04-01T08:17:10.692Z,101677.72
2023-04-01T08:20:38.834Z,101683.84
2023-04-01T08:23:31.998Z,101681.22
2023-04-01T08:26:24.905Z,101685.56
2023-04-01T08:29:44.459Z,101682.06
2023-04-01T08:32:38.123Z,101682.94
2023-04-01T08:35:39.374Z,101672.47
2023-04-01T08:38:49.889Z,101689.03
2023-04-01T08:42:06.515Z,101690.78
2023-04-01T08:45:32.693Z,101691.63
2023-04-01T08:49:02.117Z,101688.13
2023-04-01T08:52:04.753Z,101688.09
2023-04-01T08:55:07.554Z,101687.19
2023-04-01T08:58:18.763Z,101689.78
2023-04-01T09:01:47.477Z,101687.16
2023-04-01T09:05:23.832Z,101691.47
2023-04-01T09:08:24.379Z,101699.31
2023-04-01T09:11:26.414Z,101688.78
2023-04-01T09:15:06.914Z,101687.88
2023-04-01T09:18:14.027Z,101696.53
2023-04-01T09:21:11.251Z,101691.22
2023-04-01T09:24:04.233Z,101703.44
2023-04-01T09:27:03.685Z,101693.72
2023-04-01T09:30:15.409Z,101692.72
2023-04-01T09:33:08.677Z,101690.88
2023-04-01T09:36:07.760Z,101693.38
2023-04-01T09:39:19.781Z,101692.38
2023-04-01T09:42:34.679Z,101694.84
2023-04-01T09:45:56.728Z,101697.28
2023-04-01T09:48:58.907Z,101683.94
2023-04-01T09:51:46.254Z,101687.31
2023-04-01T09:54:33.755Z,101688.00
2023-04-01T09:57:48.192Z,101687.78
2023-04-01T10:00:59.582Z,101683.16
2023-04-01T10:04:05.537Z,101686.41
2023-04-01T10:07:13.329Z,101687.84
2023-04-01T10:10:09.858Z,101684.09
2023-04-01T10:13:18.841Z,101692.59
2023-04-01T10:16:11.967Z,101689.69
2023-04-01T10:19:17.878Z,101684.97
2023-04-01T10:22:34.367Z,101684.66
2023-04-01T10:25:35.252Z,101691.31
2023-04-01T10:28:47.232Z,101684.88
2023-04-01T10:32:29.863Z,101690.63
2023-04-01T10:35:30.219Z,101666.63
2023-04-01T10:38:32.854Z,101672.25
2023-04-01T10:41:56.690Z,101670.09
2023-04-01T10:45:23.030Z,101675.88
2023-04-01T10:48:31.149Z,101673.75
2023-04-01T10:51:38.297Z,101675.13
2023-04-01T10:54:58.663Z,101670.31
2023-04-01T10:58:37.232Z,101672.50
2023-04-01T11:02:24.017Z,101665.81
2023-04-01T11:05:55.261Z,101677.81
2023-04-01T11:09:20.040Z,101642.44
2023-04-01T11:12:26.561Z,101661.91
2023-04-01T11:15:32.673Z,101658.88
2023-04-01T11:19:10.171Z,101655.88
2023-04-01T11:22:22.209Z,101649.19
2023-04-01T11:25:50.993Z,101657.66
2023-04-01T11:29:34.861Z,101655.44
2023-04-01T11:33:08.844Z,101656.81
2023-04-01T11:36:23.225Z,101651.94
2023-04-01T11:39:35.949Z,101660.41
2023-04-01T11:43:22.994Z,101642.38
2023-04-01T11:46:50.558Z,101641.84
2023-04-01T11:49:53.816Z,101644.94
2023-04-01T11:53:00.922Z,101645.34
2023-04-01T11:56:12.448Z,101630.84
2023-04-01T11:59:23.231Z,101632.16
2023-04-01T12:02:38.602Z,101641.50
2023-04-01T12:05:37.301Z,101642.88
2023-04-01T12:08:45.776Z,101634.47
2023-04-01T12:11:53.524Z,101634.03
2023-04-01T12:14:53.210Z,101628.41
2023-04-01T12:18:10.112Z,101634.97
2023-04-01T12:21:06.106Z,101638.16
2023-04-01T12:24:14.731Z,101625.34
2023-04-01T12:27:14.162Z,101627.56
2023-04-01T12:30:03.856Z,101627.19
2023-04-01T12:33:09.040Z,101633.03
2023-04-01T12:36:11.498Z,101628.25
2023-04-01T12:39:12.707Z,101627.03
2023-04-01T12:42:37.032Z,101626.69
2023-04-01T12:45:56.023Z,101634.34
2023-04-01T12:49:12.870Z,101630.69
2023-04-01T12:52:24.387Z,101632.19
2023-04-01T12:55:27.210Z,101616.38
2023-04-01T12:58:18.166Z,101635.34
2023-04-01T13:00:45.521Z,101635.22
2023-04-01T13:03:31.632Z,101630.56
2023-04-01T13:06:21.392Z,101633.91
2023-04-01T13:09:05.789Z,101632.81
2023-04-01T13:11:51.317Z,101629.09
2023-04-01T13:14:32.145Z,101641.28
2023-04-01T13:17:30.589Z,101640.28
2023-04-01T13:20:06.590Z,101634.94
2023-04-01T13:22:40.969Z,101646.56
2023-04-01T13:25:23.354Z,101623.63
2023-04-01T13:27:57.621Z,101612.84
2023-04-01T13:30:45.571Z,101627.22
2023-04-01T13:33:57.491Z,101636.09
2023-04-01T13:36:37.249Z,101632.69
2023-04-01T13:39:04.361Z,101631.09
2023-04-01T13:41:46.648Z,101629.50
2023-04-01T13:44:29.071Z,101640.38
2023-04-01T13:47:29.556Z,101587.53
2023-04-01T13:50:18.282Z,101632.75
2023-04-01T13:53:12.921Z,101630.22
2023-04-01T13:55:57.224Z,101634.84
2023-04-01T13:58:57.450Z,101618.31
2023-04-01T14:01:24.692Z,101636.81
2023-04-01T14:03:54.696Z,101632.50
2023-04-01T14:06:35.476Z,101597.28
2023-04-01T14:09:47.719Z,101632.16
2023-04-01T14:12:29.825Z,101628.81
2023-04-01T14:15:22.541Z,101631.53
2023-04-01T14:18:33.811Z,101613.28
2023-04-01T14:21:33.014Z,101632.59
2023-04-01T14:24:07.171Z,101637.06
2023-04-01T14:26:46.644Z,101638.13
2023-04-01T14:29:33.775Z,101643.56
2023-04-01T14:32:00.867Z,101639.25
2023-04-01T14:34:43.292Z,101636.84
2023-04-01T14:37:55.332Z,101638.81
2023-04-01T14:40:58.399Z,101651.41
2023-04-01T14:43:48.081Z,101648.81
2023-04-01T14:46:49.112Z,101659.66
2023-04-01T14:49:34.595Z,101655.34
2023-04-01T14:52:26.210Z,101624.75
2023-04-01T14:54:54.093Z,101670.03
2023-04-01T14:57:26.455Z,101673.00
2023-04-01T14:59:53.513Z,101664.25
2023-04-01T15:02:38.738Z,101669.88
2023-04-01T15:05:08.967Z,101671.84
2023-04-01T15:07:53.132Z,101672.03
2023-04-01T15:10:39.749Z,101671.34
2023-04-01T15:13:24.595Z,101665.28
2023-04-01T15:16:13.574Z,101671.72
2023-04-01T15:19:08.887Z,101674.56
2023-04-01T15:22:20.988Z,101679.22
2023-04-01T15:24:58.877Z,101682.03
2023-04-01T15:27:32.201Z,101680.38
2023-04-01T15:30:19.109Z,101680.56
2023-04-01T15:33:05.096Z,101686.03
2023-04-01T15:35:35.346Z,101662.72
2023-04-01T15:38:05.992Z,101685.56
2023-04-01T15:41:09.700Z,101689.31
2023-04-01T15:43:49.860Z,101693.06
2023-04-01T15:46:48.877Z,101691.47
2023-04-01T15:49:35.188Z,101693.47
2023-04-01T15:53:01.096Z,101700.75
2023-04-01T15:55:38.759Z,101698.25
2023-04-01T15:58:25.186Z,101703.66
2023-04-01T16:01:04.368Z,101663.91
2023-04-01T16:03:43.766Z,101699.47
2023-04-01T16:06:25.745Z,101701.44
2023-04-01T16:09:11.932Z,101696.19
2023-04-01T16:11:52.112Z,101696.34
2023-04-01T16:14:54.517Z,101699.16
2023-04-01T16:17:52.308Z,101693.13
2023-04-01T16:20:47.628Z,101702.13
2023-04-01T16:23:36.542Z,101698.00
2023-04-01T16:26:41.239Z,101708.53
2023-04-01T16:29:24.312Z,101714.03
2023-04-01T16:32:24.239Z,101716.88
2023-04-01T16:35:16.827Z,101720.66
2023-04-01T16:38:01.577Z,101732.16
2023-04-01T16:41:02.135Z,101735.00
2023-04-01T16:43:43.377Z,101742.22
2023-04-01T16:46:36.573Z,101746.78
2023-04-01T16:49:12.723Z,101748.69
2023-04-01T16:51:48.380Z,101756.81
2023-04-01T16:54:21.134Z,101756.00
2023-04-01T16:56:56.299Z,101758.75
2023-04-01T16:59:27.536Z,101768.63
2023-04-01T17:02:03.503Z,101773.16
2023-04-01T17:04:40.901Z,101780.34
2023-04-01T17:07:46.681Z,101784.84
2023-04-01T17:11:00.224Z,101792.97
2023-04-01T17:14:13.182Z,101779.31
2023-04-01T17:17:03.550Z,101816.31
2023-04-01T17:19:46.346Z,101823.63
2023-04-01T17:22:28.274Z,101826.44
2023-04-01T17:25:32.340Z,101835.44
2023-04-01T17:28:03.001Z,101841.81
2023-04-01T17:30:51.281Z,101846.44
2023-04-01T17:33:30.632Z,101846.59
2023-04-01T17:36:08.236Z,101840.72
2023-04-01T17:38:56.490Z,101853.19
2023-04-01T17:41:48.853Z,101846.38
2023-04-01T17:44:36.282Z,101877.53
2023-04-01T17:47:23.535Z,101882.19
2023-04-01T17:49:54.359Z,101891.22
2023-04-01T17:52:24.184Z,101908.16
2023-04-01T17:54:51.066Z,101915.38
2023-04-01T17:57:41.729Z,101905.88
2023-04-01T18:00:25.199Z,101910.53
2023-04-01T18:03:22.322Z,101922.06
2023-04-01T18:05:55.118Z,101928.34
2023-04-01T18:08:41.204Z,101933.88
2023-04-01T18:11:40.568Z,101929.63
2023-04-01T18:14:46.250Z,101944.69
2023-04-01T18:17:18.802Z,101947.44
2023-04-01T18:20:23.430Z,101950.22
2023-04-01T18:22:56.814Z,101938.19
2023-04-01T18:25:28.167Z,101957.53
2023-04-01T18:28:22.058Z,101960.28
2023-04-01T18:31:29.075Z,101965.75
2023-04-01T18:34:41.043Z,101972.91
2023-04-01T18:37:29.125Z,101986.22
2023-04-01T18:40:14.002Z,101986.34
2023-04-01T18:43:05.894Z,101999.63
2023-04-01T18:45:38.606Z,102003.25
2023-04-01T18:48:38.686Z,102003.34
2023-04-01T18:51:16.039Z,102008.78
2023-04-01T18:53:49.248Z,102018.47
2023-04-01T18:56:51.898Z,102024.75
2023-04-01T18:59:30.242Z,102030.06
2023-04-01T19:02:08.222Z,102036.28
2023-04-01T19:04:43.474Z,102051.31
2023-04-01T19:07:34.746Z,102053.13
2023-04-01T19:10:13.267Z,102054.06
2023-04-01T19:13:07.946Z,102065.59
2023-04-01T19:15:45.393Z,102067.38
2023-04-01T19:18:36.496Z,102077.97
2023-04-01T19:21:18.569Z,102072.78
2023-04-01T19:24:09.929Z,102091.28
2023-04-01T19:26:36.941Z,102092.22
2023-04-01T19:29:19.159Z,102099.28
2023-04-01T19:31:52.282Z,102105.50
2023-04-01T19:35:01.531Z,102122.22
2023-04-01T19:37:46.017Z,102124.06
2023-04-01T19:40:46.184Z,102123.22
2023-04-01T19:43:39.829Z,102139.03
2023-04-01T19:46:37.882Z,102137.31
2023-04-01T19:49:31.576Z,102146.13
2023-04-01T19:52:15.669Z,102153.19
2023-04-01T19:54:45.583Z,102154.09
2023-04-01T19:57:31.443Z,102170.81
2023-04-01T20:00:07.615Z,102169.06
2023-04-01T20:02:45.698Z,102175.25
2023-04-01T20:05:51.834Z,102172.63
2023-04-01T20:08:50.760Z,102119.28
2023-04-01T20:11:36.233Z,102188.47
2023-04-01T20:14:11.686Z,102189.34
2023-04-01T20:17:02.024Z,102179.78
2023-04-01T20:19:35.903Z,102200.81
2023-04-01T20:22:10.832Z,102208.72
2023-04-01T20:24:47.664Z,102205.22
2023-04-01T20:27:14.933Z,102217.50
2023-04-01T20:29:47.691Z,102222.78
2023-04-01T20:32:33.353Z,102228.06
2023-04-01T20:35:07.015Z,102232.47
2023-04-01T20:37:41.032Z,102235.09
2023-04-01T20:40:34.457Z,102247.38
2023-04-01T20:43:22.884Z,102248.25
2023-04-01T20:45:56.453Z,102262.31
2023-04-01T20:48:41.596Z,102250.03
2023-04-01T20:51:23.249Z,102268.47
2023-04-01T20:53:54.718Z,102266.69
2023-04-01T20:56:30.147Z,102276.34
2023-04-01T20:59:26.684Z,102274.56
2023-04-01T21:02:29.099Z,102269.31
2023-04-01T21:05:26.656Z,102288.59
2023-04-01T21:08:04.115Z,102258.78
2023-04-01T21:10:41.730Z,102288.59
2023-04-01T21:13:31.080Z,102288.59
2023-04-01T21:16:44.309Z,102306.09
2023-04-01T21:19:11.363Z,102306.97
2023-04-01T21:21:51.330Z,102314.84
2023-04-01T21:24:33.066Z,102320.06
2023-04-01T21:27:23.465Z,102318.31
2023-04-01T21:30:21.063Z,102329.72
2023-04-01T21:32:57.633Z,102320.03
2023-04-01T21:35:45.904Z,102341.94
2023-04-01T21:38:12.883Z,102341.06
2023-04-01T21:40:48.810Z,102345.44
2023-04-01T21:43:37.200Z,102353.31
2023-04-01T21:46:13.088Z,102356.78
2023-04-01T21:48:59.735Z,102365.53
2023-04-01T21:51:56.302Z,102371.59
2023-04-01T21:54:29.065Z,102380.38
2023-04-01T21:57:07.975Z,102389.13
2023-04-01T22:00:00.988Z,102389.94
2023-04-01T22:02:36.594Z,102404.84
2023-04-01T22:05:18.024Z,102404.81
2023-04-01T22:08:10.679Z,102394.22
2023-04-01T22:10:46.991Z,102418.75
2023-04-01T22:13:39.792Z,102423.97
2023-04-01T22:16:23.187Z,102429.22
2023-04-01T22:19:21.070Z,102425.69
2023-04-01T22:22:07.126Z,102431.78
2023-04-01T22:24:46.117Z,102444.00
2023-04-01T22:27:26.109Z,102445.78
2023-04-01T22:30:16.388Z,102443.09
2023-04-01T22:32:47.919Z,102457.97
2023-04-01T22:35:16.279Z,102464.94
2023-04-01T22:38:22.024Z,102462.28
2023-04-01T22:41:16.758Z,102477.13
2023-04-01T22:43:45.759Z,102482.34
2023-04-01T22:46:38.229Z,102484.09
2023-04-01T22:49:17.691Z,102488.44
2023-04-01T22:52:17.961Z,102501.53
2023-04-01T22:54:50.177Z,102472.41
2023-04-01T22:57:38.413Z,102511.13
2023-04-01T23:00:11.120Z,102513.69
2023-04-01T23:02:44.994Z,102460.81
2023-04-01T23:05:16.928Z,102487.22
2023-04-01T23:08:03.886Z,102532.88
2023-04-01T23:10:50.701Z,102543.38
2023-04-01T23:13:39.045Z,102483.47
2023-04-01T23:16:07.861Z,102544.22
2023-04-01T23:18:37.945Z,102552.91
2023-04-01T23:21:22.450Z,102558.13
2023-04-01T23:24:16.866Z,102566.88
2023-04-01T23:27:13.929Z,102521.91
2023-04-01T23:29:41.085Z,102573.78
2023-04-01T23:32:17.837Z,102555.28
2023-04-01T23:34:51.026Z,102564.97
2023-04-01T23:37:20.352Z,102582.44
2023-04-01T23:39:53.276Z,102587.66
2023-04-01T23:42:27.148Z,102591.97
2023-04-01T23:44:59.380Z,102576.91
2023-04-01T23:47:38.894Z,102606.81
2023-04-01T23:50:17.435Z,102600.66
2023-04-01T23:52:50.119Z,102610.25
2023-04-01T23:55:33.984Z,102618.06
2023-04-01T23:58:27.450Z,102615.41
